sensor_id;sensor_type;location;lat;lon;timestamp;P1;durP1;ratioP1;P2;durP2;ratioP2
7515;SDS011;3799;47.184;8.538;2024-03-08T00:02:19;7.95;;;2.72;;
7515;SDS011;3799;47.184;8.538;2024-03-08T00:04:49;4.88;;;1.90;;
7515;SDS011;3799;47.184;8.538;2024-03-08T00:07:16;4.90;;;2.50;;
7515;SDS011;3799;47.184;8.538;2024-03-08T00:10:00;4.47;;;2.08;;
7515;SDS011;3799;47.184;8.538;2024-03-08T00:12:30;3.63;;;2.10;;
7515;SDS011;3799;47.184;8.538;2024-03-08T00:15:07;4.78;;;2.00;;
7515;SDS011;3799;47.184;8.538;2024-03-08T00:17:49;6.35;;;2.78;;
7515;SDS011;3799;47.184;8.538;2024-03-08T00:20:30;6.03;;;1.80;;
7515;SDS011;3799;47.184;8.538;2024-03-08T00:23:21;3.22;;;1.98;;
7515;SDS011;3799;47.184;8.538;2024-03-08T00:25:55;7.85;;;2.10;;
7515;SDS011;3799;47.184;8.538;2024-03-08T00:28:35;3.20;;;1.58;;
7515;SDS011;3799;47.184;8.538;2024-03-08T00:31:17;5.20;;;1.90;;
7515;SDS011;3799;47.184;8.538;2024-03-08T00:33:57;5.00;;;1.70;;
7515;SDS011;3799;47.184;8.538;2024-03-08T00:36:35;4.75;;;2.22;;
7515;SDS011;3799;47.184;8.538;2024-03-08T00:39:07;3.80;;;2.00;;
7515;SDS011;3799;47.184;8.538;2024-03-08T00:41:39;4.22;;;2.22;;
7515;SDS011;3799;47.184;8.538;2024-03-08T00:44:07;3.45;;;1.80;;
7515;SDS011;3799;47.184;8.538;2024-03-08T00:46:37;4.50;;;1.50;;
7515;SDS011;3799;47.184;8.538;2024-03-08T00:49:10;4.65;;;2.10;;
7515;SDS011;3799;47.184;8.538;2024-03-08T00:51:39;4.82;;;2.47;;
7515;SDS011;3799;47.184;8.538;2024-03-08T00:54:13;7.35;;;2.28;;
7515;SDS011;3799;47.184;8.538;2024-03-08T00:56:46;10.15;;;2.33;;
7515;SDS011;3799;47.184;8.538;2024-03-08T00:59:14;4.07;;;1.98;;
7515;SDS011;3799;47.184;8.538;2024-03-08T01:01:41;3.65;;;1.83;;
7515;SDS011;3799;47.184;8.538;2024-03-08T01:04:09;4.10;;;1.95;;
7515;SDS011;3799;47.184;8.538;2024-03-08T01:06:37;5.53;;;1.55;;
7515;SDS011;3799;47.184;8.538;2024-03-08T01:09:08;3.92;;;2.00;;
7515;SDS011;3799;47.184;8.538;2024-03-08T01:11:36;7.55;;;1.58;;
7515;SDS011;3799;47.184;8.538;2024-03-08T01:14:13;5.20;;;2.03;;
7515;SDS011;3799;47.184;8.538;2024-03-08T01:16:40;3.88;;;1.40;;
7515;SDS011;3799;47.184;8.538;2024-03-08T01:19:08;3.90;;;2.03;;
7515;SDS011;3799;47.184;8.538;2024-03-08T01:21:35;4.18;;;1.80;;
7515;SDS011;3799;47.184;8.538;2024-03-08T01:24:03;4.05;;;1.80;;
7515;SDS011;3799;47.184;8.538;2024-03-08T01:26:34;4.13;;;1.70;;
7515;SDS011;3799;47.184;8.538;2024-03-08T01:29:02;3.65;;;1.27;;
7515;SDS011;3799;47.184;8.538;2024-03-08T01:31:33;4.13;;;1.35;;
7515;SDS011;3799;47.184;8.538;2024-03-08T01:34:09;3.78;;;1.65;;
7515;SDS011;3799;47.184;8.538;2024-03-08T01:36:38;2.63;;;1.48;;
7515;SDS011;3799;47.184;8.538;2024-03-08T01:39:06;5.85;;;1.75;;
7515;SDS011;3799;47.184;8.538;2024-03-08T01:41:37;3.13;;;1.38;;
7515;SDS011;3799;47.184;8.538;2024-03-08T01:44:10;3.40;;;1.40;;
7515;SDS011;3799;47.184;8.538;2024-03-08T01:46:46;2.58;;;1.73;;
7515;SDS011;3799;47.184;8.538;2024-03-08T01:49:17;3.15;;;1.13;;
7515;SDS011;3799;47.184;8.538;2024-03-08T01:52:11;4.47;;;1.45;;
7515;SDS011;3799;47.184;8.538;2024-03-08T01:54:53;3.40;;;1.52;;
7515;SDS011;3799;47.184;8.538;2024-03-08T01:57:26;6.20;;;2.10;;
7515;SDS011;3799;47.184;8.538;2024-03-08T02:00:12;3.53;;;1.15;;
7515;SDS011;3799;47.184;8.538;2024-03-08T02:02:53;3.92;;;1.25;;
7515;SDS011;3799;47.184;8.538;2024-03-08T02:05:25;4.32;;;1.17;;
7515;SDS011;3799;47.184;8.538;2024-03-08T02:07:56;3.95;;;1.60;;
7515;SDS011;3799;47.184;8.538;2024-03-08T02:10:23;2.45;;;1.13;;
7515;SDS011;3799;47.184;8.538;2024-03-08T02:15:22;3.10;;;1.20;;
7515;SDS011;3799;47.184;8.538;2024-03-08T02:17:50;4.57;;;1.67;;
7515;SDS011;3799;47.184;8.538;2024-03-08T02:22:55;5.80;;;2.35;;
7515;SDS011;3799;47.184;8.538;2024-03-08T02:25:24;4.30;;;2.08;;
7515;SDS011;3799;47.184;8.538;2024-03-08T02:27:54;5.78;;;2.05;;
7515;SDS011;3799;47.184;8.538;2024-03-08T02:30:21;5.80;;;2.30;;
7515;SDS011;3799;47.184;8.538;2024-03-08T02:32:50;4.85;;;1.65;;
7515;SDS011;3799;47.184;8.538;2024-03-08T02:35:17;6.18;;;1.25;;
7515;SDS011;3799;47.184;8.538;2024-03-08T02:37:55;4.43;;;1.92;;
7515;SDS011;3799;47.184;8.538;2024-03-08T02:40:25;3.70;;;1.65;;
7515;SDS011;3799;47.184;8.538;2024-03-08T02:42:53;3.33;;;1.17;;
7515;SDS011;3799;47.184;8.538;2024-03-08T02:45:20;4.45;;;1.48;;
7515;SDS011;3799;47.184;8.538;2024-03-08T02:47:48;2.17;;;0.98;;
7515;SDS011;3799;47.184;8.538;2024-03-08T02:50:18;4.63;;;0.98;;
7515;SDS011;3799;47.184;8.538;2024-03-08T02:52:46;3.58;;;1.00;;
7515;SDS011;3799;47.184;8.538;2024-03-08T02:55:14;3.10;;;1.38;;
7515;SDS011;3799;47.184;8.538;2024-03-08T02:57:52;4.53;;;1.52;;
7515;SDS011;3799;47.184;8.538;2024-03-08T03:00:22;1.92;;;0.82;;
7515;SDS011;3799;47.184;8.538;2024-03-08T03:02:49;4.30;;;0.93;;
7515;SDS011;3799;47.184;8.538;2024-03-08T03:05:24;1.77;;;0.68;;
7515;SDS011;3799;47.184;8.538;2024-03-08T03:07:53;1.85;;;0.90;;
7515;SDS011;3799;47.184;8.538;2024-03-08T03:10:25;3.40;;;1.27;;
7515;SDS011;3799;47.184;8.538;2024-03-08T03:12:53;2.83;;;1.30;;
7515;SDS011;3799;47.184;8.538;2024-03-08T03:15:23;3.40;;;1.13;;
7515;SDS011;3799;47.184;8.538;2024-03-08T03:20:25;2.45;;;0.95;;
7515;SDS011;3799;47.184;8.538;2024-03-08T03:23:00;3.50;;;1.20;;
7515;SDS011;3799;47.184;8.538;2024-03-08T03:25:30;3.10;;;0.73;;
7515;SDS011;3799;47.184;8.538;2024-03-08T03:28:02;2.35;;;0.70;;
7515;SDS011;3799;47.184;8.538;2024-03-08T03:30:38;3.80;;;1.23;;
7515;SDS011;3799;47.184;8.538;2024-03-08T03:33:11;5.30;;;2.20;;
7515;SDS011;3799;47.184;8.538;2024-03-08T03:36:02;3.15;;;1.08;;
7515;SDS011;3799;47.184;8.538;2024-03-08T03:38:32;3.08;;;1.25;;
7515;SDS011;3799;47.184;8.538;2024-03-08T03:41:03;4.15;;;1.88;;
7515;SDS011;3799;47.184;8.538;2024-03-08T03:43:40;5.25;;;1.23;;
7515;SDS011;3799;47.184;8.538;2024-03-08T03:46:09;4.80;;;1.33;;
7515;SDS011;3799;47.184;8.538;2024-03-08T03:48:39;4.18;;;1.70;;
7515;SDS011;3799;47.184;8.538;2024-03-08T03:51:09;4.32;;;1.38;;
7515;SDS011;3799;47.184;8.538;2024-03-08T03:53:41;2.35;;;1.02;;
7515;SDS011;3799;47.184;8.538;2024-03-08T03:56:08;2.70;;;1.00;;
7515;SDS011;3799;47.184;8.538;2024-03-08T03:58:37;3.38;;;1.33;;
7515;SDS011;3799;47.184;8.538;2024-03-08T04:01:13;2.15;;;1.55;;
7515;SDS011;3799;47.184;8.538;2024-03-08T04:03:46;4.45;;;1.13;;
7515;SDS011;3799;47.184;8.538;2024-03-08T04:06:17;2.63;;;1.00;;
7515;SDS011;3799;47.184;8.538;2024-03-08T04:08:47;2.88;;;0.68;;
7515;SDS011;3799;47.184;8.538;2024-03-08T04:11:14;3.53;;;1.20;;
7515;SDS011;3799;47.184;8.538;2024-03-08T04:13:47;3.40;;;1.13;;
7515;SDS011;3799;47.184;8.538;2024-03-08T04:16:14;2.17;;;1.45;;
7515;SDS011;3799;47.184;8.538;2024-03-08T04:18:48;3.22;;;1.20;;
7515;SDS011;3799;47.184;8.538;2024-03-08T04:21:29;4.47;;;1.45;;
7515;SDS011;3799;47.184;8.538;2024-03-08T04:24:21;3.55;;;1.20;;
7515;SDS011;3799;47.184;8.538;2024-03-08T04:27:00;3.75;;;1.38;;
7515;SDS011;3799;47.184;8.538;2024-03-08T04:32:13;3.17;;;1.33;;
7515;SDS011;3799;47.184;8.538;2024-03-08T04:35:05;5.78;;;2.65;;
7515;SDS011;3799;47.184;8.538;2024-03-08T04:37:33;3.15;;;1.67;;
7515;SDS011;3799;47.184;8.538;2024-03-08T04:40:49;4.75;;;1.85;;
7515;SDS011;3799;47.184;8.538;2024-03-08T04:43:19;3.38;;;1.92;;
7515;SDS011;3799;47.184;8.538;2024-03-08T04:45:50;6.15;;;2.03;;
7515;SDS011;3799;47.184;8.538;2024-03-08T04:48:20;5.00;;;1.98;;
7515;SDS011;3799;47.184;8.538;2024-03-08T04:50:48;6.90;;;2.33;;
7515;SDS011;3799;47.184;8.538;2024-03-08T04:53:16;5.28;;;2.58;;
7515;SDS011;3799;47.184;8.538;2024-03-08T04:55:44;7.55;;;2.00;;
7515;SDS011;3799;47.184;8.538;2024-03-08T04:58:12;4.95;;;1.85;;
7515;SDS011;3799;47.184;8.538;2024-03-08T05:00:42;7.63;;;2.58;;
7515;SDS011;3799;47.184;8.538;2024-03-08T05:03:21;3.33;;;1.52;;
7515;SDS011;3799;47.184;8.538;2024-03-08T05:05:53;7.28;;;2.40;;
7515;SDS011;3799;47.184;8.538;2024-03-08T05:08:32;4.00;;;2.38;;
7515;SDS011;3799;47.184;8.538;2024-03-08T05:11:25;3.83;;;1.40;;
7515;SDS011;3799;47.184;8.538;2024-03-08T05:13:53;5.65;;;1.73;;
7515;SDS011;3799;47.184;8.538;2024-03-08T05:16:34;3.58;;;1.98;;
7515;SDS011;3799;47.184;8.538;2024-03-08T05:19:02;5.43;;;2.53;;
7515;SDS011;3799;47.184;8.538;2024-03-08T05:21:34;5.35;;;2.45;;
7515;SDS011;3799;47.184;8.538;2024-03-08T05:24:04;3.92;;;2.08;;
7515;SDS011;3799;47.184;8.538;2024-03-08T05:26:35;7.93;;;2.88;;
7515;SDS011;3799;47.184;8.538;2024-03-08T05:29:04;6.68;;;3.42;;
7515;SDS011;3799;47.184;8.538;2024-03-08T05:31:45;6.35;;;2.70;;
7515;SDS011;3799;47.184;8.538;2024-03-08T05:34:18;11.05;;;3.75;;
7515;SDS011;3799;47.184;8.538;2024-03-08T05:36:48;8.13;;;3.10;;
7515;SDS011;3799;47.184;8.538;2024-03-08T05:39:33;10.23;;;3.70;;
7515;SDS011;3799;47.184;8.538;2024-03-08T05:42:00;10.25;;;3.47;;
7515;SDS011;3799;47.184;8.538;2024-03-08T05:44:31;9.40;;;3.38;;
7515;SDS011;3799;47.184;8.538;2024-03-08T05:47:03;5.00;;;2.50;;
7515;SDS011;3799;47.184;8.538;2024-03-08T05:49:31;10.25;;;3.90;;
7515;SDS011;3799;47.184;8.538;2024-03-08T05:51:59;5.18;;;2.20;;
7515;SDS011;3799;47.184;8.538;2024-03-08T05:54:27;5.30;;;2.58;;
7515;SDS011;3799;47.184;8.538;2024-03-08T05:59:25;6.32;;;2.83;;
7515;SDS011;3799;47.184;8.538;2024-03-08T06:01:53;8.25;;;3.38;;
7515;SDS011;3799;47.184;8.538;2024-03-08T06:07:06;8.85;;;3.72;;
7515;SDS011;3799;47.184;8.538;2024-03-08T06:09:39;13.82;;;4.75;;
7515;SDS011;3799;47.184;8.538;2024-03-08T06:12:12;7.95;;;3.30;;
7515;SDS011;3799;47.184;8.538;2024-03-08T06:14:46;8.95;;;3.80;;
7515;SDS011;3799;47.184;8.538;2024-03-08T06:17:21;9.80;;;3.85;;
7515;SDS011;3799;47.184;8.538;2024-03-08T06:19:52;8.73;;;3.72;;
7515;SDS011;3799;47.184;8.538;2024-03-08T06:22:29;9.80;;;4.35;;
7515;SDS011;3799;47.184;8.538;2024-03-08T06:24:59;9.63;;;3.63;;
7515;SDS011;3799;47.184;8.538;2024-03-08T06:27:33;11.77;;;4.90;;
7515;SDS011;3799;47.184;8.538;2024-03-08T06:30:01;5.45;;;3.15;;
7515;SDS011;3799;47.184;8.538;2024-03-08T06:32:30;6.63;;;3.35;;
7515;SDS011;3799;47.184;8.538;2024-03-08T06:35:07;6.97;;;2.45;;
7515;SDS011;3799;47.184;8.538;2024-03-08T06:37:39;5.55;;;2.45;;
7515;SDS011;3799;47.184;8.538;2024-03-08T06:40:14;6.88;;;2.25;;
7515;SDS011;3799;47.184;8.538;2024-03-08T06:43:01;6.13;;;2.70;;
7515;SDS011;3799;47.184;8.538;2024-03-08T06:45:36;12.52;;;3.60;;
7515;SDS011;3799;47.184;8.538;2024-03-08T06:48:18;11.35;;;3.55;;
7515;SDS011;3799;47.184;8.538;2024-03-08T06:50:46;8.60;;;3.53;;
7515;SDS011;3799;47.184;8.538;2024-03-08T06:53:14;8.38;;;3.42;;
7515;SDS011;3799;47.184;8.538;2024-03-08T06:55:44;6.90;;;3.47;;
7515;SDS011;3799;47.184;8.538;2024-03-08T06:58:13;15.35;;;4.00;;
7515;SDS011;3799;47.184;8.538;2024-03-08T07:00:41;14.82;;;4.80;;
7515;SDS011;3799;47.184;8.538;2024-03-08T07:03:09;7.50;;;3.45;;
7515;SDS011;3799;47.184;8.538;2024-03-08T07:05:41;9.65;;;3.20;;
7515;SDS011;3799;47.184;8.538;2024-03-08T07:08:18;11.30;;;5.05;;
7515;SDS011;3799;47.184;8.538;2024-03-08T07:11:07;10.85;;;4.70;;
7515;SDS011;3799;47.184;8.538;2024-03-08T07:13:48;13.93;;;4.80;;
7515;SDS011;3799;47.184;8.538;2024-03-08T07:16:21;9.48;;;3.70;;
7515;SDS011;3799;47.184;8.538;2024-03-08T07:18:51;10.25;;;3.70;;
7515;SDS011;3799;47.184;8.538;2024-03-08T07:21:19;10.73;;;3.67;;
7515;SDS011;3799;47.184;8.538;2024-03-08T07:23:47;10.10;;;3.72;;
7515;SDS011;3799;47.184;8.538;2024-03-08T07:26:36;11.65;;;4.32;;
7515;SDS011;3799;47.184;8.538;2024-03-08T07:29:05;8.10;;;3.30;;
7515;SDS011;3799;47.184;8.538;2024-03-08T07:31:35;14.68;;;4.50;;
7515;SDS011;3799;47.184;8.538;2024-03-08T07:34:08;9.63;;;4.07;;
7515;SDS011;3799;47.184;8.538;2024-03-08T07:36:35;17.70;;;4.63;;
7515;SDS011;3799;47.184;8.538;2024-03-08T07:39:06;8.65;;;3.28;;
7515;SDS011;3799;47.184;8.538;2024-03-08T07:41:40;6.55;;;3.15;;
7515;SDS011;3799;47.184;8.538;2024-03-08T07:44:10;9.60;;;3.05;;
7515;SDS011;3799;47.184;8.538;2024-03-08T07:46:41;8.77;;;3.25;;
7515;SDS011;3799;47.184;8.538;2024-03-08T07:49:13;9.45;;;3.67;;
7515;SDS011;3799;47.184;8.538;2024-03-08T07:51:41;10.95;;;3.28;;
7515;SDS011;3799;47.184;8.538;2024-03-08T07:54:09;9.43;;;5.05;;
7515;SDS011;3799;47.184;8.538;2024-03-08T07:56:41;6.65;;;3.55;;
7515;SDS011;3799;47.184;8.538;2024-03-08T07:59:09;10.57;;;4.05;;
7515;SDS011;3799;47.184;8.538;2024-03-08T08:01:41;8.98;;;4.22;;
7515;SDS011;3799;47.184;8.538;2024-03-08T08:04:08;10.45;;;3.80;;
7515;SDS011;3799;47.184;8.538;2024-03-08T08:06:39;9.43;;;4.35;;
7515;SDS011;3799;47.184;8.538;2024-03-08T08:11:41;5.78;;;3.03;;
7515;SDS011;3799;47.184;8.538;2024-03-08T08:14:11;7.47;;;3.20;;
7515;SDS011;3799;47.184;8.538;2024-03-08T08:16:48;8.55;;;4.65;;
7515;SDS011;3799;47.184;8.538;2024-03-08T08:19:19;8.23;;;3.40;;
7515;SDS011;3799;47.184;8.538;2024-03-08T08:21:57;7.15;;;3.17;;
7515;SDS011;3799;47.184;8.538;2024-03-08T08:24:25;6.95;;;3.40;;
7515;SDS011;3799;47.184;8.538;2024-03-08T08:26:52;7.90;;;3.30;;
7515;SDS011;3799;47.184;8.538;2024-03-08T08:29:22;9.98;;;4.13;;
7515;SDS011;3799;47.184;8.538;2024-03-08T08:31:50;11.75;;;4.93;;
7515;SDS011;3799;47.184;8.538;2024-03-08T08:34:21;9.63;;;3.80;;
7515;SDS011;3799;47.184;8.538;2024-03-08T08:36:51;9.60;;;4.15;;
7515;SDS011;3799;47.184;8.538;2024-03-08T08:39:27;10.15;;;4.38;;
7515;SDS011;3799;47.184;8.538;2024-03-08T08:41:55;10.98;;;3.83;;
7515;SDS011;3799;47.184;8.538;2024-03-08T08:44:23;9.57;;;4.28;;
7515;SDS011;3799;47.184;8.538;2024-03-08T08:46:56;8.65;;;4.18;;
7515;SDS011;3799;47.184;8.538;2024-03-08T08:49:40;9.60;;;3.97;;
7515;SDS011;3799;47.184;8.538;2024-03-08T08:52:08;8.65;;;3.50;;
7515;SDS011;3799;47.184;8.538;2024-03-08T08:54:43;8.90;;;3.55;;
7515;SDS011;3799;47.184;8.538;2024-03-08T08:57:18;8.48;;;3.70;;
7515;SDS011;3799;47.184;8.538;2024-03-08T08:59:54;13.90;;;4.75;;
7515;SDS011;3799;47.184;8.538;2024-03-08T09:04:55;11.52;;;3.53;;
7515;SDS011;3799;47.184;8.538;2024-03-08T09:07:25;9.00;;;4.50;;
7515;SDS011;3799;47.184;8.538;2024-03-08T09:09:56;10.45;;;4.10;;
7515;SDS011;3799;47.184;8.538;2024-03-08T09:12:25;10.02;;;3.30;;
7515;SDS011;3799;47.184;8.538;2024-03-08T09:14:53;9.00;;;4.43;;
7515;SDS011;3799;47.184;8.538;2024-03-08T09:17:21;11.05;;;4.20;;
7515;SDS011;3799;47.184;8.538;2024-03-08T09:19:54;9.00;;;3.63;;
7515;SDS011;3799;47.184;8.538;2024-03-08T09:22:34;14.80;;;4.25;;
7515;SDS011;3799;47.184;8.538;2024-03-08T09:25:08;7.13;;;3.00;;
7515;SDS011;3799;47.184;8.538;2024-03-08T09:27:39;9.30;;;4.18;;
7515;SDS011;3799;47.184;8.538;2024-03-08T09:30:12;11.52;;;3.97;;
7515;SDS011;3799;47.184;8.538;2024-03-08T09:32:44;6.90;;;3.10;;
7515;SDS011;3799;47.184;8.538;2024-03-08T09:35:13;9.98;;;4.05;;
7515;SDS011;3799;47.184;8.538;2024-03-08T09:37:49;9.18;;;4.15;;
7515;SDS011;3799;47.184;8.538;2024-03-08T09:40:21;9.05;;;4.30;;
7515;SDS011;3799;47.184;8.538;2024-03-08T09:42:52;10.88;;;4.32;;
7515;SDS011;3799;47.184;8.538;2024-03-08T09:45:20;9.10;;;4.00;;
7515;SDS011;3799;47.184;8.538;2024-03-08T09:48:01;9.23;;;4.45;;
7515;SDS011;3799;47.184;8.538;2024-03-08T09:50:28;11.23;;;3.97;;
7515;SDS011;3799;47.184;8.538;2024-03-08T09:52:56;10.15;;;3.88;;
7515;SDS011;3799;47.184;8.538;2024-03-08T09:55:25;9.80;;;3.92;;
7515;SDS011;3799;47.184;8.538;2024-03-08T09:58:09;9.15;;;3.80;;
7515;SDS011;3799;47.184;8.538;2024-03-08T10:00:52;8.93;;;3.85;;
7515;SDS011;3799;47.184;8.538;2024-03-08T10:03:27;11.60;;;4.45;;
7515;SDS011;3799;47.184;8.538;2024-03-08T10:05:59;8.75;;;3.90;;
7515;SDS011;3799;47.184;8.538;2024-03-08T10:08:30;7.97;;;3.65;;
7515;SDS011;3799;47.184;8.538;2024-03-08T10:11:18;8.40;;;3.40;;
7515;SDS011;3799;47.184;8.538;2024-03-08T10:13:49;10.18;;;4.10;;
7515;SDS011;3799;47.184;8.538;2024-03-08T10:16:19;6.80;;;2.80;;
7515;SDS011;3799;47.184;8.538;2024-03-08T10:18:58;8.82;;;3.97;;
7515;SDS011;3799;47.184;8.538;2024-03-08T10:21:28;5.82;;;3.08;;
7515;SDS011;3799;47.184;8.538;2024-03-08T10:23:56;7.75;;;3.20;;
7515;SDS011;3799;47.184;8.538;2024-03-08T10:26:26;8.48;;;3.78;;
7515;SDS011;3799;47.184;8.538;2024-03-08T10:28:56;10.65;;;3.47;;
7515;SDS011;3799;47.184;8.538;2024-03-08T10:31:28;8.80;;;4.32;;
7515;SDS011;3799;47.184;8.538;2024-03-08T10:34:01;6.53;;;2.88;;
7515;SDS011;3799;47.184;8.538;2024-03-08T10:36:32;14.00;;;3.78;;
7515;SDS011;3799;47.184;8.538;2024-03-08T10:39:24;8.10;;;3.15;;
7515;SDS011;3799;47.184;8.538;2024-03-08T10:41:58;7.35;;;2.60;;
7515;SDS011;3799;47.184;8.538;2024-03-08T10:44:43;7.53;;;2.92;;
7515;SDS011;3799;47.184;8.538;2024-03-08T10:47:29;9.30;;;3.45;;
7515;SDS011;3799;47.184;8.538;2024-03-08T10:50:05;9.38;;;3.38;;
7515;SDS011;3799;47.184;8.538;2024-03-08T10:52:56;7.78;;;3.25;;
7515;SDS011;3799;47.184;8.538;2024-03-08T11:01:14;8.32;;;3.65;;
7515;SDS011;3799;47.184;8.538;2024-03-08T11:07:37;6.45;;;3.20;;
7515;SDS011;3799;47.184;8.538;2024-03-08T11:10:22;8.98;;;3.83;;
7515;SDS011;3799;47.184;8.538;2024-03-08T11:12:53;7.60;;;3.78;;
7515;SDS011;3799;47.184;8.538;2024-03-08T11:15:41;5.82;;;2.72;;
7515;SDS011;3799;47.184;8.538;2024-03-08T11:18:19;8.32;;;3.15;;
7515;SDS011;3799;47.184;8.538;2024-03-08T11:20:54;8.80;;;3.40;;
7515;SDS011;3799;47.184;8.538;2024-03-08T11:23:30;8.68;;;3.75;;
7515;SDS011;3799;47.184;8.538;2024-03-08T11:26:01;7.30;;;2.75;;
7515;SDS011;3799;47.184;8.538;2024-03-08T11:28:35;8.43;;;4.10;;
7515;SDS011;3799;47.184;8.538;2024-03-08T11:31:21;12.07;;;3.60;;
7515;SDS011;3799;47.184;8.538;2024-03-08T11:36:27;7.32;;;2.88;;
7515;SDS011;3799;47.184;8.538;2024-03-08T11:39:16;7.53;;;3.30;;
7515;SDS011;3799;47.184;8.538;2024-03-08T11:41:58;12.85;;;4.60;;
7515;SDS011;3799;47.184;8.538;2024-03-08T11:44:44;10.57;;;3.90;;
7515;SDS011;3799;47.184;8.538;2024-03-08T11:47:20;8.27;;;4.22;;
7515;SDS011;3799;47.184;8.538;2024-03-08T11:49:57;9.18;;;3.88;;
7515;SDS011;3799;47.184;8.538;2024-03-08T11:52:44;9.40;;;3.53;;
7515;SDS011;3799;47.184;8.538;2024-03-08T11:55:15;9.27;;;4.75;;
7515;SDS011;3799;47.184;8.538;2024-03-08T11:58:17;7.03;;;3.20;;
7515;SDS011;3799;47.184;8.538;2024-03-08T12:00:59;7.47;;;3.75;;
7515;SDS011;3799;47.184;8.538;2024-03-08T12:03:53;9.80;;;4.30;;
7515;SDS011;3799;47.184;8.538;2024-03-08T12:12:54;8.90;;;3.70;;
7515;SDS011;3799;47.184;8.538;2024-03-08T12:15:35;8.00;;;3.53;;
7515;SDS011;3799;47.184;8.538;2024-03-08T12:18:44;10.90;;;4.63;;
7515;SDS011;3799;47.184;8.538;2024-03-08T12:21:15;9.88;;;5.18;;
7515;SDS011;3799;47.184;8.538;2024-03-08T12:24:03;10.10;;;4.22;;
7515;SDS011;3799;47.184;8.538;2024-03-08T12:27:17;7.57;;;3.78;;
7515;SDS011;3799;47.184;8.538;2024-03-08T12:29:51;10.82;;;4.70;;
7515;SDS011;3799;47.184;8.538;2024-03-08T12:32:27;9.13;;;4.45;;
7515;SDS011;3799;47.184;8.538;2024-03-08T12:34:59;12.10;;;4.47;;
7515;SDS011;3799;47.184;8.538;2024-03-08T12:37:28;9.82;;;4.47;;
7515;SDS011;3799;47.184;8.538;2024-03-08T12:40:04;9.10;;;4.18;;
7515;SDS011;3799;47.184;8.538;2024-03-08T12:42:42;9.23;;;3.58;;
7515;SDS011;3799;47.184;8.538;2024-03-08T12:45:27;11.48;;;4.53;;
7515;SDS011;3799;47.184;8.538;2024-03-08T12:48:00;8.85;;;4.25;;
7515;SDS011;3799;47.184;8.538;2024-03-08T12:53:25;9.88;;;4.40;;
7515;SDS011;3799;47.184;8.538;2024-03-08T12:56:20;7.57;;;3.97;;
7515;SDS011;3799;47.184;8.538;2024-03-08T12:59:08;8.88;;;4.10;;
7515;SDS011;3799;47.184;8.538;2024-03-08T13:01:49;9.63;;;4.88;;
7515;SDS011;3799;47.184;8.538;2024-03-08T13:04:27;9.45;;;4.85;;
7515;SDS011;3799;47.184;8.538;2024-03-08T13:07:07;11.35;;;4.75;;
7515;SDS011;3799;47.184;8.538;2024-03-08T13:09:46;9.05;;;3.88;;
7515;SDS011;3799;47.184;8.538;2024-03-08T13:12:21;10.15;;;4.95;;
7515;SDS011;3799;47.184;8.538;2024-03-08T13:14:52;10.05;;;4.25;;
7515;SDS011;3799;47.184;8.538;2024-03-08T13:17:23;13.23;;;5.07;;
7515;SDS011;3799;47.184;8.538;2024-03-08T13:19:53;9.35;;;4.68;;
7515;SDS011;3799;47.184;8.538;2024-03-08T13:22:25;10.65;;;5.05;;
7515;SDS011;3799;47.184;8.538;2024-03-08T13:25:02;8.88;;;4.65;;
7515;SDS011;3799;47.184;8.538;2024-03-08T13:27:42;7.82;;;3.92;;
7515;SDS011;3799;47.184;8.538;2024-03-08T13:30:10;9.48;;;5.03;;
7515;SDS011;3799;47.184;8.538;2024-03-08T13:32:45;11.88;;;4.72;;
7515;SDS011;3799;47.184;8.538;2024-03-08T13:35:34;10.10;;;4.47;;
7515;SDS011;3799;47.184;8.538;2024-03-08T13:38:09;9.38;;;4.63;;
7515;SDS011;3799;47.184;8.538;2024-03-08T13:40:53;8.77;;;4.03;;
7515;SDS011;3799;47.184;8.538;2024-03-08T13:43:23;9.38;;;4.25;;
7515;SDS011;3799;47.184;8.538;2024-03-08T13:45:55;9.18;;;4.68;;
7515;SDS011;3799;47.184;8.538;2024-03-08T13:48:29;11.98;;;5.25;;
7515;SDS011;3799;47.184;8.538;2024-03-08T13:50:59;9.45;;;5.20;;
7515;SDS011;3799;47.184;8.538;2024-03-08T13:53:57;11.60;;;5.70;;
7515;SDS011;3799;47.184;8.538;2024-03-08T13:56:35;11.02;;;5.40;;
7515;SDS011;3799;47.184;8.538;2024-03-08T13:59:05;9.75;;;4.90;;
7515;SDS011;3799;47.184;8.538;2024-03-08T14:01:44;13.27;;;6.15;;
7515;SDS011;3799;47.184;8.538;2024-03-08T14:04:12;12.38;;;5.68;;
7515;SDS011;3799;47.184;8.538;2024-03-08T14:06:45;13.65;;;5.97;;
7515;SDS011;3799;47.184;8.538;2024-03-08T14:09:16;12.57;;;5.68;;
7515;SDS011;3799;47.184;8.538;2024-03-08T14:11:46;9.82;;;4.80;;
7515;SDS011;3799;47.184;8.538;2024-03-08T14:14:31;13.05;;;5.57;;
7515;SDS011;3799;47.184;8.538;2024-03-08T14:17:17;12.27;;;5.88;;
7515;SDS011;3799;47.184;8.538;2024-03-08T14:19:50;11.75;;;5.82;;
7515;SDS011;3799;47.184;8.538;2024-03-08T14:22:26;13.38;;;6.10;;
7515;SDS011;3799;47.184;8.538;2024-03-08T14:25:07;12.25;;;5.40;;
7515;SDS011;3799;47.184;8.538;2024-03-08T14:28:02;10.93;;;5.40;;
7515;SDS011;3799;47.184;8.538;2024-03-08T14:30:44;16.00;;;5.90;;
7515;SDS011;3799;47.184;8.538;2024-03-08T14:33:54;10.98;;;6.25;;
7515;SDS011;3799;47.184;8.538;2024-03-08T14:36:39;11.43;;;5.72;;
7515;SDS011;3799;47.184;8.538;2024-03-08T14:39:18;12.23;;;5.50;;
7515;SDS011;3799;47.184;8.538;2024-03-08T14:47:48;9.75;;;4.72;;
7515;SDS011;3799;47.184;8.538;2024-03-08T14:50:38;12.80;;;5.63;;
7515;SDS011;3799;47.184;8.538;2024-03-08T14:53:20;11.38;;;5.50;;
7515;SDS011;3799;47.184;8.538;2024-03-08T14:55:51;10.48;;;5.85;;
7515;SDS011;3799;47.184;8.538;2024-03-08T14:58:46;9.95;;;4.93;;
7515;SDS011;3799;47.184;8.538;2024-03-08T15:01:32;10.70;;;5.38;;
7515;SDS011;3799;47.184;8.538;2024-03-08T15:04:28;11.40;;;5.57;;
7515;SDS011;3799;47.184;8.538;2024-03-08T15:07:13;11.02;;;5.13;;
7515;SDS011;3799;47.184;8.538;2024-03-08T15:09:53;14.30;;;5.93;;
7515;SDS011;3799;47.184;8.538;2024-03-08T15:12:27;13.57;;;5.88;;
7515;SDS011;3799;47.184;8.538;2024-03-08T15:16:01;13.15;;;5.55;;
7515;SDS011;3799;47.184;8.538;2024-03-08T15:18:53;11.13;;;5.35;;
7515;SDS011;3799;47.184;8.538;2024-03-08T15:21:35;9.07;;;4.72;;
7515;SDS011;3799;47.184;8.538;2024-03-08T15:24:17;11.68;;;5.85;;
7515;SDS011;3799;47.184;8.538;2024-03-08T15:27:18;12.88;;;5.35;;
7515;SDS011;3799;47.184;8.538;2024-03-08T15:29:56;11.70;;;5.82;;
7515;SDS011;3799;47.184;8.538;2024-03-08T15:32:48;11.75;;;5.13;;
7515;SDS011;3799;47.184;8.538;2024-03-08T15:35:36;10.07;;;4.72;;
7515;SDS011;3799;47.184;8.538;2024-03-08T15:38:17;10.25;;;5.05;;
7515;SDS011;3799;47.184;8.538;2024-03-08T15:40:49;13.93;;;6.07;;
7515;SDS011;3799;47.184;8.538;2024-03-08T15:43:26;12.50;;;6.00;;
7515;SDS011;3799;47.184;8.538;2024-03-08T15:46:00;11.80;;;5.78;;
7515;SDS011;3799;47.184;8.538;2024-03-08T15:48:35;11.98;;;5.65;;
7515;SDS011;3799;47.184;8.538;2024-03-08T15:51:15;11.55;;;5.53;;
7515;SDS011;3799;47.184;8.538;2024-03-08T15:54:08;9.93;;;5.65;;
7515;SDS011;3799;47.184;8.538;2024-03-08T15:56:46;15.88;;;5.72;;
7515;SDS011;3799;47.184;8.538;2024-03-08T15:59:24;12.50;;;5.65;;
7515;SDS011;3799;47.184;8.538;2024-03-08T16:01:56;12.75;;;6.25;;
7515;SDS011;3799;47.184;8.538;2024-03-08T16:04:28;12.13;;;5.68;;
7515;SDS011;3799;47.184;8.538;2024-03-08T16:07:24;11.43;;;6.00;;
7515;SDS011;3799;47.184;8.538;2024-03-08T16:10:01;12.10;;;6.22;;
7515;SDS011;3799;47.184;8.538;2024-03-08T16:15:23;9.93;;;5.00;;
7515;SDS011;3799;47.184;8.538;2024-03-08T16:18:18;12.60;;;5.25;;
7515;SDS011;3799;47.184;8.538;2024-03-08T16:20:52;10.85;;;4.70;;
7515;SDS011;3799;47.184;8.538;2024-03-08T16:23:38;12.02;;;5.93;;
7515;SDS011;3799;47.184;8.538;2024-03-08T16:26:18;11.68;;;4.95;;
7515;SDS011;3799;47.184;8.538;2024-03-08T16:32:02;9.38;;;4.47;;
7515;SDS011;3799;47.184;8.538;2024-03-08T16:34:40;11.20;;;5.35;;
7515;SDS011;3799;47.184;8.538;2024-03-08T16:37:18;9.32;;;4.82;;
7515;SDS011;3799;47.184;8.538;2024-03-08T16:39:57;10.80;;;4.65;;
7515;SDS011;3799;47.184;8.538;2024-03-08T16:42:31;12.30;;;5.20;;
7515;SDS011;3799;47.184;8.538;2024-03-08T16:45:03;10.57;;;4.97;;
7515;SDS011;3799;47.184;8.538;2024-03-08T16:47:49;10.27;;;4.80;;
7515;SDS011;3799;47.184;8.538;2024-03-08T16:50:35;11.48;;;4.75;;
7515;SDS011;3799;47.184;8.538;2024-03-08T16:53:23;10.75;;;4.82;;
7515;SDS011;3799;47.184;8.538;2024-03-08T16:56:27;10.85;;;4.78;;